sensor_id;sensor_type;location;lat;lon;timestamp;P1;durP1;ratioP1;P2;durP2;ratioP2
41514;SDS011;27247;48.020;16.720;2022-09-01T00:00:45;5.00;;;4.50;;
41514;SDS011;27247;48.020;16.720;2022-09-01T00:04:58;5.97;;;4.35;;
41514;SDS011;27247;48.020;16.720;2022-09-01T00:09:10;6.68;;;3.78;;
41514;SDS011;27247;48.020;16.720;2022-09-01T00:13:23;8.20;;;4.63;;
41514;SDS011;27247;48.020;16.720;2022-09-01T00:17:33;9.33;;;3.70;;
41514;SDS011;27247;48.020;16.720;2022-09-01T00:21:44;5.20;;;4.05;;
41514;SDS011;27247;48.020;16.720;2022-09-01T00:25:55;7.25;;;4.00;;
41514;SDS011;27247;48.020;16.720;2022-09-01T00:30:05;8.82;;;3.95;;
41514;SDS011;27247;48.020;16.720;2022-09-01T00:34:16;6.57;;;3.85;;
41514;SDS011;27247;48.020;16.720;2022-09-01T00:38:27;5.57;;;3.42;;
41514;SDS011;27247;48.020;16.720;2022-09-01T00:42:38;5.88;;;3.75;;
41514;SDS011;27247;48.020;16.720;2022-09-01T00:46:50;4.70;;;3.95;;
41514;SDS011;27247;48.020;16.720;2022-09-01T00:51:01;6.70;;;3.85;;
41514;SDS011;27247;48.020;16.720;2022-09-01T00:55:32;4.10;;;3.60;;
41514;SDS011;27247;48.020;16.720;2022-09-01T00:59:47;5.97;;;3.90;;
41514;SDS011;27247;48.020;16.720;2022-09-01T01:04:02;5.47;;;3.95;;
41514;SDS011;27247;48.020;16.720;2022-09-01T01:08:14;4.97;;;3.30;;
41514;SDS011;27247;48.020;16.720;2022-09-01T01:12:28;7.07;;;4.18;;
41514;SDS011;27247;48.020;16.720;2022-09-01T01:16:40;5.03;;;3.30;;
41514;SDS011;27247;48.020;16.720;2022-09-01T01:21:03;4.18;;;3.42;;
41514;SDS011;27247;48.020;16.720;2022-09-01T01:25:39;4.90;;;3.50;;
41514;SDS011;27247;48.020;16.720;2022-09-01T01:29:51;12.45;;;3.95;;
41514;SDS011;27247;48.020;16.720;2022-09-01T01:34:02;5.25;;;3.40;;
41514;SDS011;27247;48.020;16.720;2022-09-01T01:38:17;5.53;;;3.33;;
41514;SDS011;27247;48.020;16.720;2022-09-01T01:42:31;4.68;;;3.38;;
41514;SDS011;27247;48.020;16.720;2022-09-01T01:46:44;6.28;;;3.17;;
41514;SDS011;27247;48.020;16.720;2022-09-01T01:50:57;7.32;;;3.70;;
41514;SDS011;27247;48.020;16.720;2022-09-01T01:55:08;5.07;;;3.50;;
41514;SDS011;27247;48.020;16.720;2022-09-01T01:59:21;5.85;;;3.30;;
41514;SDS011;27247;48.020;16.720;2022-09-01T02:03:33;6.00;;;3.30;;
41514;SDS011;27247;48.020;16.720;2022-09-01T02:07:47;6.78;;;3.80;;
41514;SDS011;27247;48.020;16.720;2022-09-01T02:11:59;6.47;;;3.15;;
41514;SDS011;27247;48.020;16.720;2022-09-01T02:16:09;4.60;;;3.60;;
41514;SDS011;27247;48.020;16.720;2022-09-01T02:20:23;6.50;;;3.60;;
41514;SDS011;27247;48.020;16.720;2022-09-01T02:24:37;5.25;;;3.53;;
41514;SDS011;27247;48.020;16.720;2022-09-01T02:28:47;3.72;;;3.08;;
41514;SDS011;27247;48.020;16.720;2022-09-01T02:32:58;7.55;;;3.35;;
41514;SDS011;27247;48.020;16.720;2022-09-01T02:37:09;4.00;;;3.40;;
41514;SDS011;27247;48.020;16.720;2022-09-01T02:41:19;6.33;;;3.73;;
41514;SDS011;27247;48.020;16.720;2022-09-01T02:45:33;5.25;;;3.25;;
41514;SDS011;27247;48.020;16.720;2022-09-01T02:49:44;6.40;;;2.75;;
41514;SDS011;27247;48.020;16.720;2022-09-01T02:53:55;3.83;;;3.13;;
41514;SDS011;27247;48.020;16.720;2022-09-01T02:58:06;4.75;;;3.78;;
41514;SDS011;27247;48.020;16.720;2022-09-01T03:02:25;5.00;;;3.33;;
41514;SDS011;27247;48.020;16.720;2022-09-01T03:06:38;9.25;;;3.88;;
41514;SDS011;27247;48.020;16.720;2022-09-01T03:10:49;5.78;;;3.17;;
41514;SDS011;27247;48.020;16.720;2022-09-01T03:15:01;5.57;;;3.40;;
41514;SDS011;27247;48.020;16.720;2022-09-01T03:19:11;6.93;;;3.65;;
41514;SDS011;27247;48.020;16.720;2022-09-01T03:23:23;4.50;;;3.63;;
41514;SDS011;27247;48.020;16.720;2022-09-01T03:27:37;5.57;;;3.83;;
41514;SDS011;27247;48.020;16.720;2022-09-01T03:31:47;3.73;;;3.00;;
41514;SDS011;27247;48.020;16.720;2022-09-01T03:35:57;5.68;;;3.17;;
41514;SDS011;27247;48.020;16.720;2022-09-01T03:40:08;3.43;;;2.90;;
41514;SDS011;27247;48.020;16.720;2022-09-01T03:44:19;4.07;;;3.03;;
41514;SDS011;27247;48.020;16.720;2022-09-01T03:48:30;5.47;;;2.97;;
41514;SDS011;27247;48.020;16.720;2022-09-01T03:52:41;6.25;;;2.83;;
41514;SDS011;27247;48.020;16.720;2022-09-01T03:56:52;4.82;;;2.60;;
41514;SDS011;27247;48.020;16.720;2022-09-01T04:01:03;4.65;;;2.63;;
41514;SDS011;27247;48.020;16.720;2022-09-01T04:05:14;5.37;;;3.07;;
41514;SDS011;27247;48.020;16.720;2022-09-01T04:09:25;3.42;;;2.78;;
41514;SDS011;27247;48.020;16.720;2022-09-01T04:13:37;7.50;;;3.10;;
41514;SDS011;27247;48.020;16.720;2022-09-01T04:17:49;3.83;;;3.05;;
41514;SDS011;27247;48.020;16.720;2022-09-01T04:22:18;4.78;;;3.38;;
41514;SDS011;27247;48.020;16.720;2022-09-01T04:26:30;6.20;;;3.20;;
41514;SDS011;27247;48.020;16.720;2022-09-01T04:30:40;5.40;;;3.23;;
41514;SDS011;27247;48.020;16.720;2022-09-01T04:34:51;4.18;;;3.15;;
41514;SDS011;27247;48.020;16.720;2022-09-01T04:39:02;7.03;;;3.77;;
41514;SDS011;27247;48.020;16.720;2022-09-01T04:43:17;5.68;;;3.67;;
41514;SDS011;27247;48.020;16.720;2022-09-01T04:47:28;4.78;;;3.08;;
41514;SDS011;27247;48.020;16.720;2022-09-01T04:51:42;7.28;;;2.97;;
41514;SDS011;27247;48.020;16.720;2022-09-01T04:55:54;9.57;;;3.35;;
41514;SDS011;27247;48.020;16.720;2022-09-01T05:00:04;3.30;;;2.77;;
41514;SDS011;27247;48.020;16.720;2022-09-01T05:04:16;3.40;;;2.38;;
41514;SDS011;27247;48.020;16.720;2022-09-01T05:08:29;4.78;;;2.90;;
41514;SDS011;27247;48.020;16.720;2022-09-01T05:12:44;5.85;;;2.63;;
41514;SDS011;27247;48.020;16.720;2022-09-01T05:16:56;5.40;;;2.60;;
41514;SDS011;27247;48.020;16.720;2022-09-01T05:21:07;6.07;;;3.05;;
41514;SDS011;27247;48.020;16.720;2022-09-01T05:25:21;4.03;;;2.70;;
41514;SDS011;27247;48.020;16.720;2022-09-01T05:29:32;4.25;;;2.13;;
41514;SDS011;27247;48.020;16.720;2022-09-01T05:33:43;6.82;;;2.70;;
41514;SDS011;27247;48.020;16.720;2022-09-01T05:37:54;4.53;;;2.30;;
41514;SDS011;27247;48.020;16.720;2022-09-01T05:42:05;3.43;;;2.37;;
41514;SDS011;27247;48.020;16.720;2022-09-01T05:46:23;5.75;;;2.53;;
41514;SDS011;27247;48.020;16.720;2022-09-01T05:50:37;2.65;;;1.92;;
41514;SDS011;27247;48.020;16.720;2022-09-01T05:54:52;8.25;;;2.90;;
41514;SDS011;27247;48.020;16.720;2022-09-01T05:59:04;2.85;;;2.22;;
41514;SDS011;27247;48.020;16.720;2022-09-01T06:03:14;3.80;;;2.30;;
41514;SDS011;27247;48.020;16.720;2022-09-01T06:07:26;5.55;;;2.15;;
41514;SDS011;27247;48.020;16.720;2022-09-01T06:11:37;4.43;;;2.38;;
41514;SDS011;27247;48.020;16.720;2022-09-01T06:15:48;6.30;;;3.20;;
41514;SDS011;27247;48.020;16.720;2022-09-01T06:19:59;6.68;;;2.72;;
41514;SDS011;27247;48.020;16.720;2022-09-01T06:24:10;10.18;;;2.67;;
41514;SDS011;27247;48.020;16.720;2022-09-01T06:28:21;3.20;;;2.30;;
41514;SDS011;27247;48.020;16.720;2022-09-01T06:32:32;4.90;;;2.42;;
41514;SDS011;27247;48.020;16.720;2022-09-01T06:36:47;5.75;;;2.35;;
41514;SDS011;27247;48.020;16.720;2022-09-01T06:41:03;5.72;;;2.85;;
41514;SDS011;27247;48.020;16.720;2022-09-01T06:45:22;8.88;;;3.10;;
41514;SDS011;27247;48.020;16.720;2022-09-01T06:49:33;5.60;;;2.80;;
41514;SDS011;27247;48.020;16.720;2022-09-01T06:53:43;10.60;;;2.55;;
41514;SDS011;27247;48.020;16.720;2022-09-01T06:58:05;3.65;;;2.20;;
41514;SDS011;27247;48.020;16.720;2022-09-01T07:02:17;5.00;;;2.22;;
41514;SDS011;27247;48.020;16.720;2022-09-01T07:06:28;6.40;;;2.50;;
41514;SDS011;27247;48.020;16.720;2022-09-01T07:10:41;4.28;;;2.22;;
41514;SDS011;27247;48.020;16.720;2022-09-01T07:14:56;8.55;;;2.45;;
41514;SDS011;27247;48.020;16.720;2022-09-01T07:19:09;4.65;;;2.67;;
41514;SDS011;27247;48.020;16.720;2022-09-01T07:23:22;6.28;;;2.67;;
41514;SDS011;27247;48.020;16.720;2022-09-01T07:27:33;5.38;;;2.40;;
41514;SDS011;27247;48.020;16.720;2022-09-01T07:31:43;6.97;;;2.37;;
41514;SDS011;27247;48.020;16.720;2022-09-01T07:35:53;4.60;;;2.30;;
41514;SDS011;27247;48.020;16.720;2022-09-01T07:40:04;3.90;;;2.03;;
41514;SDS011;27247;48.020;16.720;2022-09-01T07:44:19;4.15;;;2.30;;
41514;SDS011;27247;48.020;16.720;2022-09-01T07:48:30;5.80;;;2.85;;
41514;SDS011;27247;48.020;16.720;2022-09-01T07:52:41;4.53;;;2.70;;
41514;SDS011;27247;48.020;16.720;2022-09-01T07:56:52;3.60;;;2.13;;
41514;SDS011;27247;48.020;16.720;2022-09-01T08:01:08;3.53;;;2.15;;
41514;SDS011;27247;48.020;16.720;2022-09-01T08:05:27;4.82;;;2.15;;
41514;SDS011;27247;48.020;16.720;2022-09-01T08:09:38;4.97;;;2.22;;
41514;SDS011;27247;48.020;16.720;2022-09-01T08:13:49;3.47;;;2.08;;
41514;SDS011;27247;48.020;16.720;2022-09-01T08:18:01;5.40;;;2.33;;
41514;SDS011;27247;48.020;16.720;2022-09-01T08:22:12;5.93;;;2.17;;
41514;SDS011;27247;48.020;16.720;2022-09-01T08:26:23;7.13;;;2.20;;
41514;SDS011;27247;48.020;16.720;2022-09-01T08:30:36;4.75;;;2.15;;
41514;SDS011;27247;48.020;16.720;2022-09-01T08:34:48;4.40;;;2.20;;
41514;SDS011;27247;48.020;16.720;2022-09-01T08:38:59;4.70;;;1.80;;
41514;SDS011;27247;48.020;16.720;2022-09-01T08:43:22;3.47;;;2.08;;
41514;SDS011;27247;48.020;16.720;2022-09-01T08:47:36;5.28;;;2.20;;
41514;SDS011;27247;48.020;16.720;2022-09-01T08:51:51;5.80;;;1.95;;
41514;SDS011;27247;48.020;16.720;2022-09-01T08:56:05;4.10;;;2.17;;
41514;SDS011;27247;48.020;16.720;2022-09-01T09:00:19;3.53;;;2.22;;
41514;SDS011;27247;48.020;16.720;2022-09-01T09:08:58;4.78;;;1.98;;
41514;SDS011;27247;48.020;16.720;2022-09-01T09:18:05;5.90;;;2.25;;
41514;SDS011;27247;48.020;16.720;2022-09-01T09:22:21;3.60;;;1.83;;
41514;SDS011;27247;48.020;16.720;2022-09-01T09:26:31;3.27;;;1.97;;
41514;SDS011;27247;48.020;16.720;2022-09-01T09:30:41;4.40;;;2.05;;
41514;SDS011;27247;48.020;16.720;2022-09-01T09:34:52;3.20;;;2.00;;
41514;SDS011;27247;48.020;16.720;2022-09-01T09:39:06;5.17;;;1.90;;
41514;SDS011;27247;48.020;16.720;2022-09-01T09:43:28;2.35;;;1.90;;
41514;SDS011;27247;48.020;16.720;2022-09-01T09:47:41;2.80;;;1.85;;
41514;SDS011;27247;48.020;16.720;2022-09-01T09:51:55;3.17;;;2.30;;
41514;SDS011;27247;48.020;16.720;2022-09-01T09:56:21;2.90;;;2.10;;
41514;SDS011;27247;48.020;16.720;2022-09-01T10:00:33;6.85;;;2.33;;
41514;SDS011;27247;48.020;16.720;2022-09-01T10:04:44;3.60;;;2.17;;
41514;SDS011;27247;48.020;16.720;2022-09-01T10:08:54;5.50;;;2.10;;
41514;SDS011;27247;48.020;16.720;2022-09-01T10:13:07;4.65;;;2.15;;
41514;SDS011;27247;48.020;16.720;2022-09-01T10:17:28;10.77;;;2.13;;
41514;SDS011;27247;48.020;16.720;2022-09-01T10:21:43;3.88;;;2.13;;
41514;SDS011;27247;48.020;16.720;2022-09-01T10:26:02;5.25;;;2.05;;
41514;SDS011;27247;48.020;16.720;2022-09-01T10:30:18;5.10;;;2.17;;
41514;SDS011;27247;48.020;16.720;2022-09-01T10:34:31;4.53;;;2.00;;
41514;SDS011;27247;48.020;16.720;2022-09-01T10:38:45;5.40;;;2.10;;
41514;SDS011;27247;48.020;16.720;2022-09-01T10:47:33;2.15;;;1.42;;
41514;SDS011;27247;48.020;16.720;2022-09-01T10:51:46;3.22;;;1.67;;
41514;SDS011;27247;48.020;16.720;2022-09-01T11:00:46;6.00;;;2.10;;
41514;SDS011;27247;48.020;16.720;2022-09-01T11:13:57;2.88;;;2.05;;
41514;SDS011;27247;48.020;16.720;2022-09-01T11:18:15;3.25;;;2.00;;
41514;SDS011;27247;48.020;16.720;2022-09-01T11:22:39;6.07;;;1.55;;
41514;SDS011;27247;48.020;16.720;2022-09-01T11:26:52;2.67;;;1.83;;
41514;SDS011;27247;48.020;16.720;2022-09-01T11:35:19;2.30;;;1.60;;
41514;SDS011;27247;48.020;16.720;2022-09-01T11:39:33;3.83;;;1.77;;
41514;SDS011;27247;48.020;16.720;2022-09-01T11:43:49;3.38;;;2.00;;
41514;SDS011;27247;48.020;16.720;2022-09-01T11:48:09;3.85;;;1.75;;
41514;SDS011;27247;48.020;16.720;2022-09-01T11:52:23;4.80;;;1.92;;
41514;SDS011;27247;48.020;16.720;2022-09-01T11:56:35;5.22;;;1.90;;
41514;SDS011;27247;48.020;16.720;2022-09-01T12:00:46;4.00;;;1.93;;
41514;SDS011;27247;48.020;16.720;2022-09-01T12:04:56;2.63;;;1.90;;
41514;SDS011;27247;48.020;16.720;2022-09-01T12:09:06;1.38;;;1.27;;
41514;SDS011;27247;48.020;16.720;2022-09-01T12:13:19;5.22;;;1.80;;
41514;SDS011;27247;48.020;16.720;2022-09-01T12:17:31;2.78;;;1.73;;
41514;SDS011;27247;48.020;16.720;2022-09-01T12:21:42;1.77;;;1.50;;
41514;SDS011;27247;48.020;16.720;2022-09-01T12:26:06;2.53;;;1.90;;
41514;SDS011;27247;48.020;16.720;2022-09-01T12:30:34;3.35;;;2.03;;
41514;SDS011;27247;48.020;16.720;2022-09-01T12:34:58;4.05;;;1.70;;
41514;SDS011;27247;48.020;16.720;2022-09-01T12:43:37;6.03;;;1.50;;
41514;SDS011;27247;48.020;16.720;2022-09-01T12:47:49;2.10;;;1.40;;
41514;SDS011;27247;48.020;16.720;2022-09-01T12:52:16;3.05;;;1.92;;
41514;SDS011;27247;48.020;16.720;2022-09-01T12:56:29;5.05;;;1.33;;
41514;SDS011;27247;48.020;16.720;2022-09-01T13:01:01;3.00;;;1.30;;
41514;SDS011;27247;48.020;16.720;2022-09-01T13:05:27;5.20;;;1.58;;
41514;SDS011;27247;48.020;16.720;2022-09-01T13:09:42;4.38;;;1.40;;
41514;SDS011;27247;48.020;16.720;2022-09-01T13:13:52;6.00;;;1.40;;
41514;SDS011;27247;48.020;16.720;2022-09-01T13:18:02;4.47;;;1.30;;
41514;SDS011;27247;48.020;16.720;2022-09-01T13:22:13;1.90;;;1.30;;
41514;SDS011;27247;48.020;16.720;2022-09-01T13:26:23;2.10;;;1.57;;
41514;SDS011;27247;48.020;16.720;2022-09-01T13:30:35;1.90;;;1.30;;
41514;SDS011;27247;48.020;16.720;2022-09-01T13:34:46;3.28;;;1.63;;
41514;SDS011;27247;48.020;16.720;2022-09-01T13:38:58;3.88;;;1.45;;
41514;SDS011;27247;48.020;16.720;2022-09-01T13:43:08;2.72;;;1.65;;
41514;SDS011;27247;48.020;16.720;2022-09-01T13:47:19;4.97;;;1.70;;
41514;SDS011;27247;48.020;16.720;2022-09-01T13:51:29;5.40;;;1.17;;
41514;SDS011;27247;48.020;16.720;2022-09-01T13:55:40;1.55;;;1.20;;
41514;SDS011;27247;48.020;16.720;2022-09-01T13:59:51;5.38;;;1.67;;
41514;SDS011;27247;48.020;16.720;2022-09-01T14:04:01;5.10;;;1.60;;
41514;SDS011;27247;48.020;16.720;2022-09-01T14:08:16;5.50;;;1.35;;
41514;SDS011;27247;48.020;16.720;2022-09-01T14:12:29;3.83;;;1.30;;
41514;SDS011;27247;48.020;16.720;2022-09-01T14:16:40;4.00;;;1.25;;
41514;SDS011;27247;48.020;16.720;2022-09-01T14:20:51;2.73;;;1.20;;
41514;SDS011;27247;48.020;16.720;2022-09-01T14:25:01;1.53;;;1.33;;
41514;SDS011;27247;48.020;16.720;2022-09-01T14:29:12;3.17;;;1.30;;
41514;SDS011;27247;48.020;16.720;2022-09-01T14:33:22;4.67;;;1.40;;
41514;SDS011;27247;48.020;16.720;2022-09-01T14:37:36;3.55;;;1.58;;
41514;SDS011;27247;48.020;16.720;2022-09-01T14:41:47;2.35;;;1.30;;
41514;SDS011;27247;48.020;16.720;2022-09-01T14:46:01;4.90;;;1.77;;
41514;SDS011;27247;48.020;16.720;2022-09-01T14:50:16;2.33;;;1.33;;
41514;SDS011;27247;48.020;16.720;2022-09-01T14:54:30;1.45;;;1.08;;
41514;SDS011;27247;48.020;16.720;2022-09-01T14:58:40;3.28;;;1.20;;
41514;SDS011;27247;48.020;16.720;2022-09-01T15:02:53;5.85;;;1.23;;
41514;SDS011;27247;48.020;16.720;2022-09-01T15:07:04;3.83;;;1.50;;
41514;SDS011;27247;48.020;16.720;2022-09-01T15:11:16;2.67;;;1.33;;
41514;SDS011;27247;48.020;16.720;2022-09-01T15:15:28;7.97;;;1.58;;
41514;SDS011;27247;48.020;16.720;2022-09-01T15:19:39;3.15;;;1.52;;
41514;SDS011;27247;48.020;16.720;2022-09-01T15:23:49;2.10;;;1.60;;
41514;SDS011;27247;48.020;16.720;2022-09-01T15:28:00;3.13;;;1.20;;
41514;SDS011;27247;48.020;16.720;2022-09-01T15:32:12;4.57;;;1.50;;
41514;SDS011;27247;48.020;16.720;2022-09-01T15:36:24;1.98;;;1.35;;
41514;SDS011;27247;48.020;16.720;2022-09-01T15:40:38;4.00;;;1.77;;
41514;SDS011;27247;48.020;16.720;2022-09-01T15:44:50;1.98;;;1.50;;
41514;SDS011;27247;48.020;16.720;2022-09-01T15:49:04;2.63;;;1.23;;
41514;SDS011;27247;48.020;16.720;2022-09-01T15:53:16;3.05;;;1.60;;
41514;SDS011;27247;48.020;16.720;2022-09-01T15:57:27;1.70;;;1.23;;
41514;SDS011;27247;48.020;16.720;2022-09-01T16:01:39;4.60;;;1.30;;
41514;SDS011;27247;48.020;16.720;2022-09-01T16:05:52;2.25;;;1.15;;
41514;SDS011;27247;48.020;16.720;2022-09-01T16:10:02;2.43;;;1.27;;
41514;SDS011;27247;48.020;16.720;2022-09-01T16:14:15;1.63;;;1.00;;
41514;SDS011;27247;48.020;16.720;2022-09-01T16:23:07;2.40;;;1.10;;
41514;SDS011;27247;48.020;16.720;2022-09-01T16:27:26;4.47;;;1.42;;
41514;SDS011;27247;48.020;16.720;2022-09-01T16:31:42;2.22;;;1.05;;
41514;SDS011;27247;48.020;16.720;2022-09-01T16:48:59;1.92;;;1.15;;
41514;SDS011;27247;48.020;16.720;2022-09-01T16:53:47;2.03;;;0.98;;
41514;SDS011;27247;48.020;16.720;2022-09-01T16:58:16;2.13;;;1.10;;
41514;SDS011;27247;48.020;16.720;2022-09-01T17:06:45;1.55;;;1.25;;
41514;SDS011;27247;48.020;16.720;2022-09-01T17:10:58;3.20;;;1.17;;
41514;SDS011;27247;48.020;16.720;2022-09-01T17:15:20;3.30;;;1.10;;
41514;SDS011;27247;48.020;16.720;2022-09-01T17:19:48;1.38;;;0.90;;
41514;SDS011;27247;48.020;16.720;2022-09-01T17:24:06;3.70;;;1.13;;
41514;SDS011;27247;48.020;16.720;2022-09-01T17:28:25;3.33;;;0.88;;
41514;SDS011;27247;48.020;16.720;2022-09-01T17:32:47;3.25;;;1.10;;
41514;SDS011;27247;48.020;16.720;2022-09-01T17:37:36;4.68;;;1.13;;
41514;SDS011;27247;48.020;16.720;2022-09-01T17:41:54;2.90;;;1.00;;
41514;SDS011;27247;48.020;16.720;2022-09-01T17:55:21;4.03;;;1.38;;
41514;SDS011;27247;48.020;16.720;2022-09-01T18:08:30;5.05;;;1.00;;
41514;SDS011;27247;48.020;16.720;2022-09-01T18:12:41;6.97;;;1.30;;
41514;SDS011;27247;48.020;16.720;2022-09-01T18:21:31;1.77;;;1.35;;
41514;SDS011;27247;48.020;16.720;2022-09-01T18:25:54;3.70;;;1.48;;
41514;SDS011;27247;48.020;16.720;2022-09-01T18:30:12;3.67;;;1.20;;
41514;SDS011;27247;48.020;16.720;2022-09-01T18:34:43;3.85;;;1.05;;
41514;SDS011;27247;48.020;16.720;2022-09-01T18:38:59;3.72;;;1.20;;
41514;SDS011;27247;48.020;16.720;2022-09-01T18:43:41;1.83;;;1.08;;
41514;SDS011;27247;48.020;16.720;2022-09-01T18:57:04;3.70;;;1.08;;
41514;SDS011;27247;48.020;16.720;2022-09-01T19:01:21;4.70;;;1.00;;
41514;SDS011;27247;48.020;16.720;2022-09-01T19:10:23;1.33;;;1.00;;
41514;SDS011;27247;48.020;16.720;2022-09-01T19:15:03;4.72;;;1.13;;
41514;SDS011;27247;48.020;16.720;2022-09-01T19:32:34;1.73;;;0.98;;
41514;SDS011;27247;48.020;16.720;2022-09-01T19:36:47;5.38;;;1.30;;
41514;SDS011;27247;48.020;16.720;2022-09-01T19:41:12;6.15;;;1.70;;
41514;SDS011;27247;48.020;16.720;2022-09-01T19:46:06;1.10;;;0.75;;
41514;SDS011;27247;48.020;16.720;2022-09-01T19:50:29;4.20;;;1.25;;
41514;SDS011;27247;48.020;16.720;2022-09-01T19:54:55;1.50;;;0.82;;
41514;SDS011;27247;48.020;16.720;2022-09-01T20:03:56;3.33;;;1.27;;
41514;SDS011;27247;48.020;16.720;2022-09-01T20:08:17;3.83;;;1.10;;
41514;SDS011;27247;48.020;16.720;2022-09-01T20:12:41;1.75;;;1.15;;
41514;SDS011;27247;48.020;16.720;2022-09-01T20:17:18;4.15;;;1.00;;
41514;SDS011;27247;48.020;16.720;2022-09-01T20:21:33;1.52;;;0.88;;
41514;SDS011;27247;48.020;16.720;2022-09-01T20:25:52;5.07;;;1.30;;
41514;SDS011;27247;48.020;16.720;2022-09-01T20:30:14;2.15;;;1.30;;
41514;SDS011;27247;48.020;16.720;2022-09-01T20:34:30;4.45;;;1.00;;
41514;SDS011;27247;48.020;16.720;2022-09-01T20:38:51;3.33;;;1.30;;
41514;SDS011;27247;48.020;16.720;2022-09-01T20:43:24;3.63;;;0.90;;
41514;SDS011;27247;48.020;16.720;2022-09-01T20:47:39;5.18;;;1.10;;
41514;SDS011;27247;48.020;16.720;2022-09-01T20:56:51;2.15;;;1.10;;
41514;SDS011;27247;48.020;16.720;2022-09-01T21:01:15;0.70;;;0.70;;
41514;SDS011;27247;48.020;16.720;2022-09-01T21:18:31;1.48;;;0.95;;
41514;SDS011;27247;48.020;16.720;2022-09-01T21:22:53;0.77;;;0.70;;
41514;SDS011;27247;48.020;16.720;2022-09-01T21:27:05;2.35;;;1.00;;
41514;SDS011;27247;48.020;16.720;2022-09-01T21:31:20;2.08;;;0.77;;
41514;SDS011;27247;48.020;16.720;2022-09-01T21:35:32;1.10;;;0.88;;
41514;SDS011;27247;48.020;16.720;2022-09-01T21:39:43;1.23;;;0.90;;
41514;SDS011;27247;48.020;16.720;2022-09-01T21:43:53;3.72;;;0.93;;
41514;SDS011;27247;48.020;16.720;2022-09-01T21:48:04;1.93;;;0.90;;
41514;SDS011;27247;48.020;16.720;2022-09-01T21:52:14;1.98;;;1.25;;
41514;SDS011;27247;48.020;16.720;2022-09-01T21:56:25;3.40;;;1.30;;
41514;SDS011;27247;48.020;16.720;2022-09-01T22:00:36;2.88;;;1.30;;
41514;SDS011;27247;48.020;16.720;2022-09-01T22:04:48;4.82;;;1.10;;
41514;SDS011;27247;48.020;16.720;2022-09-01T22:08:59;1.95;;;1.10;;
41514;SDS011;27247;48.020;16.720;2022-09-01T22:13:11;6.47;;;1.00;;
41514;SDS011;27247;48.020;16.720;2022-09-01T22:17:21;3.13;;;1.35;;
41514;SDS011;27247;48.020;16.720;2022-09-01T22:21:32;2.53;;;1.35;;
41514;SDS011;27247;48.020;16.720;2022-09-01T22:25:43;1.40;;;1.00;;
41514;SDS011;27247;48.020;16.720;2022-09-01T22:29:55;2.40;;;0.90;;
41514;SDS011;27247;48.020;16.720;2022-09-01T22:34:05;3.30;;;1.40;;
41514;SDS011;27247;48.020;16.720;2022-09-01T22:38:16;4.60;;;1.13;;
41514;SDS011;27247;48.020;16.720;2022-09-01T22:42:28;1.38;;;1.13;;
41514;SDS011;27247;48.020;16.720;2022-09-01T22:46:38;3.80;;;1.20;;
41514;SDS011;27247;48.020;16.720;2022-09-01T22:50:50;4.05;;;1.08;;
41514;SDS011;27247;48.020;16.720;2022-09-01T22:55:01;2.33;;;1.05;;
41514;SDS011;27247;48.020;16.720;2022-09-01T22:59:13;3.05;;;1.20;;
41514;SDS011;27247;48.020;16.720;2022-09-01T23:03:23;2.20;;;0.70;;
41514;SDS011;27247;48.020;16.720;2022-09-01T23:07:34;1.23;;;1.02;;
41514;SDS011;27247;48.020;16.720;2022-09-01T23:11:46;5.32;;;1.10;;
41514;SDS011;27247;48.020;16.720;2022-09-01T23:15:57;2.17;;;1.00;;
41514;SDS011;27247;48.020;16.720;2022-09-01T23:20:10;1.73;;;0.88;;
41514;SDS011;27247;48.020;16.720;2022-09-01T23:24:22;1.55;;;1.00;;
41514;SDS011;27247;48.020;16.720;2022-09-01T23:28:33;2.20;;;1.20;;
41514;SDS011;27247;48.020;16.720;2022-09-01T23:32:44;1.10;;;0.90;;
41514;SDS011;27247;48.020;16.720;2022-09-01T23:36:54;2.42;;;1.13;;
41514;SDS011;27247;48.020;16.720;2022-09-01T23:41:07;1.10;;;1.00;;
41514;SDS011;27247;48.020;16.720;2022-09-01T23:45:20;1.13;;;0.80;;
41514;SDS011;27247;48.020;16.720;2022-09-01T23:49:30;1.13;;;0.93;;
41514;SDS011;27247;48.020;16.720;2022-09-01T23:53:40;5.50;;;1.40;;
41514;SDS011;27247;48.020;16.720;2022-09-01T23:57:51;3.15;;;1.15;;
